Apache, Nevada
Current Conditions -  °F | °C
As of 11:56 AM on Wednesday 26 Nov 2014 (Local Time) from KWMC Reporting Station
Clear Clear  
Wind Chill: 56°   Ceiling: Unl
Heat Index: 56°   Visibility: 10mi
Dew Point: 31°   Wind: 0mph
Humidity: 39%   Direction: NA
Pressure: 30.37"   Gusts: NA
Location:  40.601°N, 117.984°W
Report Text: KWMC 261956Z AUTO 00000KT 10SM CLR 13/M01 A3037 RMK AO2 SLP282 T01331006
Loading
Personal Weather Stations






























Interactive Weather Map New forecast layout! Learn more

10-Day Weather Forecast

Advertisements
Track Severe Weather on mobile